createdAt,value
2023-05-01T00:02:23.498Z,0.10
2023-05-01T00:04:50.597Z,0.00
2023-05-01T00:07:17.598Z,-0.10
2023-05-01T00:09:44.619Z,-0.20
2023-05-01T00:12:11.914Z,-0.20
2023-05-01T00:14:38.840Z,-0.20
2023-05-01T00:17:06.273Z,-0.30
2023-05-01T00:19:33.200Z,-0.30
2023-05-01T00:22:00.373Z,-0.30
2023-05-01T00:24:27.674Z,-0.40
2023-05-01T00:26:54.710Z,-0.40
2023-05-01T00:29:21.986Z,-0.40
2023-05-01T00:31:49.059Z,-0.50
2023-05-01T00:34:16.248Z,-0.50
2023-05-01T00:36:43.387Z,-0.50
2023-05-01T00:39:10.386Z,-0.50
2023-05-01T00:41:37.703Z,-0.60
2023-05-01T00:44:04.809Z,-0.60
2023-05-01T00:46:34.497Z,-0.60
2023-05-01T00:49:01.751Z,-0.60
2023-05-01T00:51:29.904Z,-0.60
2023-05-01T00:53:58.439Z,-0.70
2023-05-01T00:56:26.445Z,-0.70
2023-05-01T00:58:54.417Z,-0.70
2023-05-01T01:01:22.005Z,-0.70
2023-05-01T01:03:51.429Z,-0.70
2023-05-01T01:06:58.925Z,-0.70
2023-05-01T01:09:25.847Z,-0.70
2023-05-01T01:12:45.507Z,-0.80
2023-05-01T01:15:16.197Z,-0.80
2023-05-01T01:18:01.777Z,-0.70
2023-05-01T01:20:36.000Z,-0.80
2023-05-01T01:23:30.647Z,-0.80
2023-05-01T01:26:25.320Z,-0.90
2023-05-01T01:29:29.291Z,-0.90
2023-05-01T01:32:33.428Z,-1.00
2023-05-01T01:35:12.793Z,-1.00
2023-05-01T01:37:50.084Z,-1.00
2023-05-01T01:40:22.046Z,-1.00
2023-05-01T01:43:03.442Z,-1.00
2023-05-01T01:45:40.175Z,-1.00
2023-05-01T01:48:17.800Z,-1.00
2023-05-01T01:50:46.955Z,-1.00
2023-05-01T01:53:18.371Z,-1.00
2023-05-01T01:55:46.884Z,-1.00
2023-05-01T01:58:17.219Z,-1.00
2023-05-01T02:00:46.120Z,-1.10
2023-05-01T02:03:15.169Z,-1.10
2023-05-01T02:05:43.728Z,-1.10
2023-05-01T02:08:11.717Z,-1.10
2023-05-01T02:10:40.330Z,-1.10
2023-05-01T02:13:07.645Z,-1.10
2023-05-01T02:15:35.866Z,-1.10
2023-05-01T02:18:06.658Z,-1.10
2023-05-01T02:20:33.673Z,-1.10
2023-05-01T02:23:00.907Z,-1.10
2023-05-01T02:25:31.864Z,-1.10
2023-05-01T02:28:06.544Z,-1.10
2023-05-01T02:30:33.614Z,-1.10
2023-05-01T02:33:00.683Z,-1.10
2023-05-01T02:35:27.678Z,-1.10
2023-05-01T02:37:54.768Z,-1.10
2023-05-01T02:40:22.126Z,-1.10
2023-05-01T02:42:52.012Z,-1.10
2023-05-01T02:45:23.912Z,-1.10
2023-05-01T02:47:54.743Z,-1.10
2023-05-01T02:50:22.349Z,-1.20
2023-05-01T02:52:50.028Z,-1.10
2023-05-01T02:55:17.586Z,-1.10
2023-05-01T02:57:44.579Z,-1.10
2023-05-01T03:00:14.194Z,-1.10
2023-05-01T03:02:41.493Z,-1.10
2023-05-01T03:05:09.002Z,-1.00
2023-05-01T03:07:36.048Z,-1.00
2023-05-01T03:10:04.415Z,-1.00
2023-05-01T03:12:31.668Z,-1.00
2023-05-01T03:14:58.704Z,-0.90
2023-05-01T03:17:25.891Z,-0.70
2023-05-01T03:19:53.029Z,-0.40
2023-05-01T03:22:20.314Z,0.30
2023-05-01T03:24:47.729Z,1.20
2023-05-01T03:27:18.683Z,2.30
2023-05-01T03:29:45.666Z,3.10
2023-05-01T03:32:12.656Z,3.90
2023-05-01T03:34:39.601Z,4.70
2023-05-01T03:37:06.514Z,5.30
2023-05-01T03:39:33.472Z,5.90
2023-05-01T03:42:00.398Z,6.40
2023-05-01T03:44:27.648Z,6.90
2023-05-01T03:46:54.774Z,7.30
2023-05-01T03:49:21.712Z,7.60
2023-05-01T03:51:49.033Z,7.80
2023-05-01T03:54:16.081Z,8.10
2023-05-01T03:56:43.545Z,8.30
2023-05-01T03:59:10.623Z,8.60
2023-05-01T04:01:37.854Z,8.90
2023-05-01T04:04:05.054Z,9.10
2023-05-01T04:06:32.663Z,9.30
2023-05-01T04:08:59.735Z,9.40
2023-05-01T04:11:27.391Z,9.60
2023-05-01T04:13:54.419Z,9.80
2023-05-01T04:16:21.581Z,10.00
2023-05-01T04:18:48.735Z,10.20
2023-05-01T04:21:17.791Z,10.40
2023-05-01T04:23:44.981Z,10.60
2023-05-01T04:26:12.058Z,10.80
2023-05-01T04:28:39.128Z,10.90
2023-05-01T04:31:06.373Z,10.80
2023-05-01T04:33:33.422Z,11.00
2023-05-01T04:36:01.162Z,11.20
2023-05-01T04:38:29.465Z,11.40
2023-05-01T04:40:56.573Z,11.80
2023-05-01T04:43:23.782Z,12.00
2023-05-01T04:45:50.953Z,12.30
2023-05-01T04:48:17.953Z,12.50
2023-05-01T04:50:45.037Z,12.60
2023-05-01T04:53:12.060Z,12.70
2023-05-01T04:55:39.079Z,12.70
2023-05-01T04:58:06.150Z,12.80
2023-05-01T05:00:33.130Z,13.10
2023-05-01T05:03:00.201Z,13.30
2023-05-01T05:05:27.596Z,13.60
2023-05-01T05:07:54.583Z,13.90
2023-05-01T05:10:21.480Z,14.00
2023-05-01T05:12:48.443Z,14.30
2023-05-01T05:15:16.568Z,14.40
2023-05-01T05:17:43.542Z,14.70
2023-05-01T05:20:10.827Z,14.90
2023-05-01T05:22:38.006Z,15.10
2023-05-01T05:25:07.068Z,15.30
2023-05-01T05:27:38.083Z,15.70
2023-05-01T05:30:06.100Z,15.90
2023-05-01T05:32:33.813Z,16.10
2023-05-01T05:35:01.121Z,16.20
2023-05-01T05:37:28.165Z,16.40
2023-05-01T05:39:55.538Z,16.30
2023-05-01T05:42:25.720Z,16.30
2023-05-01T05:44:53.154Z,16.40
2023-05-01T05:47:20.351Z,16.60
2023-05-01T05:49:47.331Z,16.80
2023-05-01T05:52:14.799Z,16.70
2023-05-01T05:54:41.807Z,16.60
2023-05-01T05:57:09.070Z,16.30
2023-05-01T05:59:36.611Z,16.50
2023-05-01T06:02:03.979Z,16.60
2023-05-01T06:04:30.914Z,16.80
2023-05-01T06:06:58.297Z,16.80
2023-05-01T06:09:25.421Z,16.90
2023-05-01T06:11:52.543Z,16.80
2023-05-01T06:14:19.842Z,16.80
2023-05-01T06:16:46.961Z,16.70
2023-05-01T06:19:14.193Z,16.50
2023-05-01T06:21:41.393Z,16.50
2023-05-01T06:24:08.584Z,16.40
2023-05-01T06:26:35.491Z,16.30
2023-05-01T06:29:02.526Z,16.00
2023-05-01T06:31:29.522Z,16.00
2023-05-01T06:33:56.456Z,16.10
2023-05-01T06:36:23.449Z,16.20
2023-05-01T06:38:50.410Z,16.30
2023-05-01T06:41:17.502Z,16.60
2023-05-01T06:43:44.456Z,16.70
2023-05-01T06:46:12.662Z,16.80
2023-05-01T06:48:39.794Z,16.90
2023-05-01T06:51:06.725Z,16.70
2023-05-01T06:53:33.677Z,16.80
2023-05-01T06:56:00.616Z,17.00
2023-05-01T06:58:27.584Z,17.20
2023-05-01T07:00:54.725Z,17.20
2023-05-01T07:05:57.337Z,17.40
2023-05-01T07:08:24.427Z,17.40
2023-05-01T07:10:51.872Z,17.30
2023-05-01T07:13:19.563Z,17.40
2023-05-01T07:15:46.853Z,17.50
2023-05-01T07:18:13.918Z,17.30
2023-05-01T07:20:42.569Z,17.30
2023-05-01T07:23:09.973Z,17.40
2023-05-01T07:25:42.950Z,17.20
2023-05-01T07:28:09.948Z,16.90
2023-05-01T07:30:37.616Z,16.90
2023-05-01T07:33:06.038Z,17.10
2023-05-01T07:35:33.153Z,17.10
2023-05-01T07:38:00.060Z,17.10
2023-05-01T07:40:27.040Z,16.80
2023-05-01T07:42:54.663Z,16.60
2023-05-01T07:45:21.773Z,16.50
2023-05-01T07:47:49.724Z,16.40
2023-05-01T07:50:17.300Z,16.60
2023-05-01T07:52:44.679Z,16.60
2023-05-01T07:55:11.735Z,16.70
2023-05-01T07:57:39.396Z,16.80
2023-05-01T08:00:06.990Z,16.90
2023-05-01T08:02:34.140Z,16.70
2023-05-01T08:05:02.942Z,16.60
2023-05-01T08:07:30.065Z,16.40
2023-05-01T08:09:59.282Z,16.30
2023-05-01T08:12:28.455Z,16.00
2023-05-01T08:14:55.692Z,15.70
2023-05-01T08:17:22.674Z,15.50
2023-05-01T08:19:50.412Z,15.40
2023-05-01T08:22:17.339Z,15.20
2023-05-01T08:24:44.244Z,15.10
2023-05-01T08:27:11.239Z,15.00
2023-05-01T08:29:38.276Z,15.00
2023-05-01T08:32:05.662Z,15.10
2023-05-01T08:34:32.650Z,15.20
2023-05-01T08:37:00.196Z,15.10
2023-05-01T08:39:27.110Z,14.90
2023-05-01T08:41:54.182Z,14.90
2023-05-01T08:44:21.567Z,15.00
2023-05-01T08:47:01.960Z,14.90
2023-05-01T08:49:31.971Z,14.80
2023-05-01T08:52:01.958Z,14.90
2023-05-01T08:54:31.187Z,14.90
2023-05-01T08:57:04.793Z,15.00
2023-05-01T08:59:35.956Z,15.00
2023-05-01T09:02:05.961Z,15.00
2023-05-01T09:04:35.603Z,15.00
2023-05-01T09:07:02.749Z,14.80
2023-05-01T09:09:30.689Z,14.80
2023-05-01T09:12:25.854Z,14.80
2023-05-01T09:14:54.589Z,15.00
2023-05-01T09:17:22.999Z,15.20
2023-05-01T09:19:53.488Z,15.30
2023-05-01T09:22:21.402Z,15.20
2023-05-01T09:24:48.652Z,15.00
2023-05-01T09:27:16.085Z,14.80
2023-05-01T09:29:45.625Z,14.90
2023-05-01T09:32:26.053Z,15.30
2023-05-01T09:34:53.773Z,15.60
2023-05-01T09:37:29.036Z,15.50
2023-05-01T09:40:06.333Z,15.40
2023-05-01T09:42:35.997Z,15.60
2023-05-01T09:45:05.234Z,15.80
2023-05-01T09:47:34.183Z,15.90
2023-05-01T09:50:05.446Z,16.00
2023-05-01T09:52:33.999Z,16.20
2023-05-01T09:55:17.866Z,16.40
2023-05-01T09:57:46.388Z,16.30
2023-05-01T10:00:15.853Z,16.30
2023-05-01T10:02:46.242Z,16.20
2023-05-01T10:05:14.077Z,16.10
2023-05-01T10:07:56.653Z,16.00
2023-05-01T10:10:23.811Z,15.90
2023-05-01T10:12:51.037Z,15.90
2023-05-01T10:15:25.527Z,16.10
2023-05-01T10:17:54.665Z,15.90
2023-05-01T10:20:22.296Z,15.60
2023-05-01T10:22:49.771Z,15.60
2023-05-01T10:25:18.286Z,15.50
2023-05-01T10:27:45.549Z,15.30
2023-05-01T10:30:12.938Z,15.30
2023-05-01T10:32:41.838Z,15.50
2023-05-01T10:35:20.188Z,15.80
2023-05-01T10:37:49.118Z,16.10
2023-05-01T10:40:41.295Z,16.30
2023-05-01T10:43:21.291Z,16.50
2023-05-01T10:45:49.247Z,16.60
2023-05-01T10:48:38.112Z,16.80
2023-05-01T10:51:15.584Z,16.70
2023-05-01T10:53:43.374Z,16.70
2023-05-01T10:56:25.771Z,16.60
2023-05-01T10:59:04.847Z,16.50
2023-05-01T11:01:43.293Z,16.30
2023-05-01T11:04:22.506Z,16.10
2023-05-01T11:07:11.573Z,15.90
2023-05-01T11:09:54.864Z,15.70
2023-05-01T11:12:46.537Z,15.50
2023-05-01T11:15:29.725Z,15.40
2023-05-01T11:18:03.747Z,15.30
2023-05-01T11:20:51.165Z,15.20
2023-05-01T11:23:18.585Z,15.20
2023-05-01T11:25:48.214Z,15.20
2023-05-01T11:28:20.819Z,15.00
2023-05-01T11:30:48.503Z,14.80
2023-05-01T11:33:22.712Z,14.50
2023-05-01T11:35:58.672Z,14.20
2023-05-01T11:38:25.732Z,14.20
2023-05-01T11:40:59.162Z,14.40
2023-05-01T11:43:26.902Z,14.50
2023-05-01T11:46:02.671Z,14.50
2023-05-01T11:48:31.617Z,14.60
2023-05-01T11:50:58.801Z,14.70
2023-05-01T11:53:25.854Z,14.60
2023-05-01T11:55:52.967Z,14.60
2023-05-01T11:58:34.667Z,14.70
2023-05-01T12:01:01.972Z,14.90
2023-05-01T12:03:44.210Z,15.00
2023-05-01T12:06:15.671Z,15.00
2023-05-01T12:08:51.216Z,14.90
2023-05-01T12:11:20.726Z,14.80
2023-05-01T12:13:50.261Z,14.60
2023-05-01T12:16:17.511Z,14.60
2023-05-01T12:18:44.734Z,14.70
2023-05-01T12:21:18.108Z,14.80
2023-05-01T12:23:45.085Z,14.90
2023-05-01T12:26:25.334Z,14.90
2023-05-01T12:28:58.662Z,14.90
2023-05-01T12:31:27.174Z,14.80
2023-05-01T12:34:03.521Z,14.70
2023-05-01T12:36:35.462Z,14.50
2023-05-01T12:39:03.741Z,14.40
2023-05-01T12:41:37.560Z,14.40
2023-05-01T12:44:21.002Z,14.20
2023-05-01T12:47:02.083Z,13.80
2023-05-01T12:49:30.488Z,13.50
2023-05-01T12:52:03.742Z,13.30
2023-05-01T12:54:40.714Z,13.20
2023-05-01T12:57:15.557Z,13.20
2023-05-01T12:59:47.193Z,13.30
2023-05-01T13:02:25.863Z,13.30
2023-05-01T13:05:14.000Z,13.50
2023-05-01T13:07:52.244Z,13.70
2023-05-01T13:10:34.127Z,13.90
2023-05-01T13:13:04.179Z,14.10
2023-05-01T13:15:31.951Z,14.20
2023-05-01T13:18:05.599Z,14.20
2023-05-01T13:20:32.999Z,14.10
2023-05-01T13:23:00.035Z,14.00
2023-05-01T13:25:27.399Z,13.70
2023-05-01T13:27:54.362Z,13.50
2023-05-01T13:30:31.439Z,13.30
2023-05-01T13:32:58.612Z,13.10
2023-05-01T13:35:27.250Z,12.90
2023-05-01T13:37:54.860Z,12.80
2023-05-01T13:40:24.058Z,12.70
2023-05-01T13:42:53.055Z,12.80
2023-05-01T13:45:21.467Z,13.00
2023-05-01T13:47:50.125Z,13.20
2023-05-01T13:50:18.150Z,13.30
2023-05-01T13:52:45.899Z,13.50
2023-05-01T13:55:17.774Z,13.50
2023-05-01T13:57:44.834Z,13.60
2023-05-01T14:00:19.310Z,13.60
2023-05-01T14:02:53.299Z,13.40
2023-05-01T14:05:28.548Z,13.40
2023-05-01T14:07:57.716Z,13.30
2023-05-01T14:10:27.931Z,13.30
2023-05-01T14:12:59.053Z,13.30
2023-05-01T14:15:26.337Z,13.30
2023-05-01T14:17:53.430Z,13.30
2023-05-01T14:20:20.498Z,13.40
2023-05-01T14:22:51.758Z,13.30
2023-05-01T14:25:27.258Z,13.30
2023-05-01T14:27:55.370Z,13.20
2023-05-01T14:30:33.864Z,13.10
2023-05-01T14:33:08.218Z,13.00
2023-05-01T14:35:36.469Z,12.90
2023-05-01T14:38:14.016Z,12.90
2023-05-01T14:40:44.563Z,12.80
2023-05-01T14:43:17.977Z,12.80
2023-05-01T14:45:46.682Z,12.80
2023-05-01T14:48:35.973Z,12.80
2023-05-01T14:51:06.598Z,12.80
2023-05-01T14:53:33.652Z,12.80
2023-05-01T14:56:00.758Z,12.80
2023-05-01T14:58:27.687Z,12.80
2023-05-01T15:00:55.241Z,12.70
2023-05-01T15:03:22.378Z,12.70
2023-05-01T15:05:49.499Z,12.70
2023-05-01T15:08:16.814Z,12.70
2023-05-01T15:10:45.072Z,12.70
2023-05-01T15:13:12.074Z,12.70
2023-05-01T15:15:39.043Z,12.70
2023-05-01T15:18:06.099Z,12.70
2023-05-01T15:20:33.545Z,12.60
2023-05-01T15:23:00.439Z,12.60
2023-05-01T15:25:27.543Z,12.50
2023-05-01T15:27:55.501Z,12.60
2023-05-01T15:30:22.673Z,12.60
2023-05-01T15:32:49.732Z,12.70
2023-05-01T15:35:17.513Z,12.70
2023-05-01T15:37:44.460Z,12.60
2023-05-01T15:40:11.847Z,12.50
2023-05-01T15:42:39.892Z,12.40
2023-05-01T15:45:07.543Z,12.30
2023-05-01T15:47:34.455Z,12.20
2023-05-01T15:50:01.621Z,12.10
2023-05-01T15:52:32.114Z,12.00
2023-05-01T15:54:59.168Z,12.00
2023-05-01T15:57:26.087Z,12.10
2023-05-01T15:59:55.980Z,12.20
2023-05-01T16:02:23.305Z,12.20
2023-05-01T16:04:56.313Z,12.10
2023-05-01T16:07:23.300Z,12.10
2023-05-01T16:09:50.359Z,12.00
2023-05-01T16:12:17.293Z,11.90
2023-05-01T16:14:44.517Z,11.90
2023-05-01T16:17:11.747Z,11.90
2023-05-01T16:19:39.482Z,11.80
2023-05-01T16:22:07.320Z,11.80
2023-05-01T16:24:35.202Z,11.70
2023-05-01T16:27:02.598Z,11.70
2023-05-01T16:29:32.154Z,11.60
2023-05-01T16:31:59.181Z,11.60
2023-05-01T16:34:27.121Z,11.60
2023-05-01T16:36:56.320Z,11.50
2023-05-01T16:39:23.532Z,11.50
2023-05-01T16:41:54.905Z,11.60
2023-05-01T16:44:23.228Z,11.60
2023-05-01T16:46:54.994Z,11.50
2023-05-01T16:49:23.629Z,11.50
2023-05-01T16:51:50.927Z,11.50
2023-05-01T16:54:18.239Z,11.40
2023-05-01T16:56:45.430Z,11.50
2023-05-01T16:59:12.473Z,11.40
2023-05-01T17:01:39.423Z,11.40
2023-05-01T17:04:06.573Z,11.30
2023-05-01T17:06:33.573Z,11.30
2023-05-01T17:09:00.591Z,11.30
2023-05-01T17:11:28.618Z,11.20
2023-05-01T17:13:57.313Z,11.20
2023-05-01T17:16:24.346Z,11.10
2023-05-01T17:18:51.360Z,11.10
2023-05-01T17:21:18.769Z,11.10
2023-05-01T17:23:45.759Z,11.10
2023-05-01T17:26:16.068Z,11.00
2023-05-01T17:28:45.042Z,11.00
2023-05-01T17:31:12.151Z,11.00
2023-05-01T17:33:39.185Z,11.00
2023-05-01T17:36:06.310Z,10.90
2023-05-01T17:38:33.278Z,10.90
2023-05-01T17:41:00.271Z,10.80
2023-05-01T17:43:27.290Z,10.80
2023-05-01T17:45:54.438Z,10.80
2023-05-01T17:48:29.285Z,10.80
2023-05-01T17:50:56.325Z,10.80
2023-05-01T17:53:23.411Z,10.70
2023-05-01T17:55:50.694Z,10.70
2023-05-01T17:58:17.652Z,10.60
2023-05-01T18:00:44.897Z,10.60
2023-05-01T18:03:12.597Z,10.50
2023-05-01T18:05:39.798Z,10.50
2023-05-01T18:08:06.919Z,10.40
2023-05-01T18:10:34.034Z,10.40
2023-05-01T18:13:01.001Z,10.30
2023-05-01T18:15:28.117Z,10.30
2023-05-01T18:17:55.174Z,10.30
2023-05-01T18:20:22.454Z,10.20
2023-05-01T18:22:50.122Z,10.10
2023-05-01T18:25:17.484Z,10.10
2023-05-01T18:27:46.245Z,10.00
2023-05-01T18:30:13.423Z,9.90
2023-05-01T18:32:48.391Z,9.90
2023-05-01T18:35:17.245Z,9.80
2023-05-01T18:37:44.345Z,9.80
2023-05-01T18:40:11.818Z,9.80
2023-05-01T18:42:41.698Z,9.70
2023-05-01T18:45:10.293Z,9.70
2023-05-01T18:47:37.330Z,9.60
2023-05-01T18:50:05.645Z,9.60
2023-05-01T18:52:32.920Z,9.60
2023-05-01T18:54:59.939Z,9.60
2023-05-01T18:57:28.719Z,9.60
2023-05-01T18:59:55.788Z,9.50
2023-05-01T19:02:23.130Z,9.50
2023-05-01T19:04:57.427Z,9.50
2023-05-01T19:07:26.533Z,9.50
2023-05-01T19:09:53.676Z,9.50
2023-05-01T19:12:20.643Z,9.40
2023-05-01T19:14:47.648Z,9.30
2023-05-01T19:17:14.701Z,9.20
2023-05-01T19:19:41.630Z,9.10
2023-05-01T19:22:08.608Z,8.90
2023-05-01T19:24:35.559Z,8.70
2023-05-01T19:27:03.451Z,8.60
2023-05-01T19:29:33.821Z,8.40
2023-05-01T19:32:00.893Z,8.30
2023-05-01T19:34:28.500Z,8.20
2023-05-01T19:36:57.138Z,8.00
2023-05-01T19:39:24.247Z,7.90
2023-05-01T19:41:51.642Z,7.80
2023-05-01T19:44:18.676Z,7.70
2023-05-01T19:46:45.635Z,7.60
2023-05-01T19:49:12.594Z,7.50
2023-05-01T19:51:39.572Z,7.40
2023-05-01T19:54:06.636Z,7.30
2023-05-01T19:56:34.184Z,7.20
2023-05-01T19:59:01.162Z,7.10
2023-05-01T20:01:31.447Z,7.00
2023-05-01T20:03:58.464Z,6.90
2023-05-01T20:06:25.550Z,6.80
2023-05-01T20:08:52.545Z,6.70
2023-05-01T20:11:19.481Z,6.60
2023-05-01T20:13:46.393Z,6.60
2023-05-01T20:16:13.327Z,6.50
2023-05-01T20:18:40.340Z,6.50
2023-05-01T20:21:07.926Z,6.40
2023-05-01T20:23:34.976Z,6.30
2023-05-01T20:26:01.999Z,6.30
2023-05-01T20:28:29.388Z,6.30
2023-05-01T20:30:56.848Z,6.30
2023-05-01T20:33:24.687Z,6.30
2023-05-01T20:35:51.836Z,6.20
2023-05-01T20:38:18.832Z,6.20
2023-05-01T20:40:45.928Z,6.20
2023-05-01T20:43:13.070Z,6.20
2023-05-01T20:45:40.201Z,6.20
2023-05-01T20:48:07.653Z,6.10
2023-05-01T20:50:35.535Z,6.10
2023-05-01T20:53:05.043Z,6.10
2023-05-01T20:55:31.942Z,6.10
2023-05-01T20:57:58.894Z,6.10
2023-05-01T21:00:25.940Z,6.10
2023-05-01T21:02:53.201Z,6.10
2023-05-01T21:05:20.465Z,6.20
2023-05-01T21:07:48.108Z,6.20
2023-05-01T21:10:16.689Z,6.10
2023-05-01T21:12:43.745Z,6.10
2023-05-01T21:15:11.978Z,6.10
2023-05-01T21:17:40.776Z,6.00
2023-05-01T21:20:12.400Z,6.00
2023-05-01T21:22:42.001Z,6.00
2023-05-01T21:25:09.359Z,5.90
2023-05-01T21:27:40.903Z,5.90
2023-05-01T21:30:08.778Z,5.80
2023-05-01T21:32:41.722Z,5.80
2023-05-01T21:35:10.159Z,5.70
2023-05-01T21:37:37.763Z,5.70
2023-05-01T21:40:06.682Z,5.70
2023-05-01T21:42:39.929Z,5.60
2023-05-01T21:45:13.020Z,5.60
2023-05-01T21:47:45.764Z,5.50
2023-05-01T21:50:18.030Z,5.50
2023-05-01T21:52:48.108Z,5.40
2023-05-01T21:55:25.083Z,5.40
2023-05-01T21:57:56.265Z,5.30
2023-05-01T22:00:23.451Z,5.20
2023-05-01T22:02:52.061Z,5.20
2023-05-01T22:05:22.589Z,5.20
2023-05-01T22:07:52.128Z,5.20
2023-05-01T22:10:19.755Z,5.10
2023-05-01T22:12:48.893Z,5.10
2023-05-01T22:15:16.422Z,5.00
2023-05-01T22:17:43.943Z,5.00
2023-05-01T22:20:11.627Z,5.00
2023-05-01T22:22:40.462Z,5.00
2023-05-01T22:25:08.633Z,5.00
2023-05-01T22:27:36.394Z,5.00
2023-05-01T22:30:04.584Z,5.00
2023-05-01T22:32:31.722Z,5.00
2023-05-01T22:34:58.798Z,4.90
2023-05-01T22:37:25.975Z,4.90
2023-05-01T22:39:57.691Z,4.90
2023-05-01T22:42:24.979Z,4.90
2023-05-01T22:44:52.011Z,4.90
2023-05-01T22:47:18.919Z,4.90
2023-05-01T22:49:45.876Z,4.90
2023-05-01T22:52:12.835Z,4.90
2023-05-01T22:54:39.807Z,4.90
2023-05-01T22:57:06.731Z,4.90
2023-05-01T22:59:33.725Z,5.00
2023-05-01T23:02:04.003Z,5.00
2023-05-01T23:04:32.326Z,4.90
2023-05-01T23:06:59.364Z,4.90
2023-05-01T23:09:26.569Z,4.90
2023-05-01T23:11:53.626Z,4.90
2023-05-01T23:14:20.707Z,4.80
2023-05-01T23:16:47.661Z,4.80
2023-05-01T23:19:22.904Z,4.70
2023-05-01T23:21:51.276Z,4.70
2023-05-01T23:24:21.387Z,4.60
2023-05-01T23:26:48.743Z,4.50
2023-05-01T23:29:17.190Z,4.50
2023-05-01T23:31:47.925Z,4.40
2023-05-01T23:34:17.214Z,4.40
2023-05-01T23:36:47.794Z,4.30
2023-05-01T23:39:16.414Z,4.30
2023-05-01T23:41:43.974Z,4.30
2023-05-01T23:44:11.368Z,4.30
2023-05-01T23:46:38.485Z,4.30
2023-05-01T23:49:05.605Z,4.30
2023-05-01T23:51:32.956Z,4.30
2023-05-01T23:54:00.194Z,4.40
2023-05-01T23:56:27.190Z,4.40
2023-05-01T23:58:54.154Z,4.40
